Houston, Texas
Current Conditions -  °F | °C
As of 4:55 AM on Friday 19 Dec 2014 (Local Time) from KMCJ Reporting Station
Overcast Overcast  
Wind Chill: 59°   Ceiling: 500
Heat Index: 59°   Visibility: NA
Dew Point: 59°   Wind: 12mph
Humidity: 100%   Direction: 60°ENE
Pressure: 29.96"   Gusts: 17mph
Location:  29.76°N, 95.37°W
Report Text: KMCJ 191055Z AUTO 06010G15KT BKN005 OVC009 15/15 A2996 RMK AO1
Loading
Personal Weather Stations






























Interactive Weather Map New forecast layout! Learn more

10-Day Weather Forecast

Advertisements
Track Severe Weather on mobile